Terminal Aerodrome Forecast
Issued by NWS

Home | Current Version | Previous Version | Text Only | Print | Product List | Glossary On
Versions: 1 2 3 4 5 6 7 8 9 10 11 12 13 14 15 16
178
FTUS44 KLZK 221038 AAA
TAFLLQ
TAF AMD
KLLQ 221038Z 2211/2306 18008KT P6SM -TSRA SCT020 OVC050CB
      WS020/20040KT
      TEMPO 2211/2214 VRB15G30KT 2SM TSRA BKN015CB OVC040
     FM221500 30008G15KT P6SM -TSRA BKN020 OVC050CB
     FM222000 34007KT P6SM VCSH SCT030 BKN060 BKN250=

USA.gov is the U.S. government's official web portal to all federal, state and local government web resources and services.